This is the latest recevied weather packets stored in our database for station/object KN6ETB-1. If no packets are shown the sender has not sent any weather packets the latest 10 day(s).
| Time | Temp. | Humidity | Pressure | Rain* | Wind** | Luminosity | Snow |
|---|---|---|---|---|---|---|---|
| 1777473798 | 13.89° C | 78% | 1015.9 hPa | 0 mm | - | 118 W/m² | - |
| 1777473495 | 14.44° C | 80% | 1015.8 hPa | 0 mm | - | 104 W/m² | - |
| 1777473190 | 13.33° C | 84% | 1016.1 hPa | 0 mm | - | 95 W/m² | - |
| 1777472887 | 12.22° C | 87% | 1015.9 hPa | 0 mm | - | 82 W/m² | - |
| 1777472583 | 11.67° C | 87% | 1015.8 hPa | 0 mm | - | 73 W/m² | - |
| 1777472280 | 11.67° C | 88% | 1015.8 hPa | 0 mm | - | 55 W/m² | - |
| 1777471976 | 11.11° C | 90% | 1015.9 hPa | 0 mm | - | 46 W/m² | - |
| 1777471673 | 10° C | 90% | 1015.8 hPa | 0 mm | - | 44 W/m² | - |
| 1777471370 | 10° C | 90% | 1015.7 hPa | 0 mm | - | 39 W/m² | - |
| 1777471066 | 9.44° C | 91% | 1015.6 hPa | 0 mm | - | 35 W/m² | - |
| 1777470763 | 9.44° C | 91% | 1015.8 hPa | 0 mm | - | 24 W/m² | - |
| 1777470459 | 9.44° C | 91% | 1015.6 hPa | 0 mm | - | 16 W/m² | - |
| 1777470156 | 9.44° C | 91% | 1015.7 hPa | 0 mm | - | 15 W/m² | - |
| 1777469852 | 9.44° C | 91% | 1015.4 hPa | 0 mm | - | 11 W/m² | - |
| 1777469548 | 8.89° C | 91% | 1015.8 hPa | 0 mm | - | 10 W/m² | - |
| 1777469242 | 9.44° C | 91% | 1015.4 hPa | 0 mm | - | 6 W/m² | - |
| 1777468937 | 8.89° C | 91% | 1015.6 hPa | 0 mm | - | 4 W/m² | - |
| 1777468634 | 8.89° C | 90% | 1015.5 hPa | 0 mm | - | 2 W/m² | - |
| 1777468331 | 8.89° C | 90% | 1015.3 hPa | 0 mm | - | 1 W/m² | - |
| 1777468027 | 8.89° C | 90% | 1015.5 hPa | 0 mm | - | 0 W/m² | - |
| 1777467723 | 9.44° C | 90% | 1015.4 hPa | 0 mm | - | 0 W/m² | - |
| 1777467418 | 10° C | 90% | 1015.4 hPa | 0 mm | - | 0 W/m² | - |
| 1777467114 | 10° C | 90% | 1015.4 hPa | 0 mm | - | 0 W/m² | - |
| 1777466811 | 10° C | 90% | 1015.3 hPa | 0 mm | - | 0 W/m² | - |
| 1777466509 | 10° C | 90% | 1015.4 hPa | 0 mm | - | 0 W/m² | - |
* Rain latest hour (hover to see other rain measurements)
** Current wind speed in m/s (hover to see current wind gust speed)